Emerald Coast — WDC9127 — position and weather

sailwx.info

Track history (hours):
 
Tides and Currents Weather Stations Pressure Air Temp Water Temp Dewpoint Dewpoint Depression Visibility Wind Speed Wind Dir Waves Ship Positions

Emerald Coast

Owner: Dann Marine Towing, LC, Chesapeake City, MD. More information available from US FCC via Universal Licensing System and Coast Guard Vessel Documentation Center.

Last reported at 2014-Nov-28 07:32 UTC. Time now 2014-Nov-28 08:32 UTC.
Position N 40°41' W 074°10'.

; draft 3 m.

Type: Towing. MMSI: 367097920.

Date/timePositionNaut miles runAvg speedWind from/ knotsBaromVisibWave heightAir tempDewpointWater temp
2014-Nov-28 07:32N 40°41' W 074°10'0 0.0
2014-Nov-28 06:32N 40°41' W 074°10'0 0.0
2014-Nov-28 04:28N 40°41' W 074°10'0 0.0
2014-Nov-28 03:32N 40°41' W 074°10'0 0.0
2014-Nov-28 02:33N 40°41' W 074°10'0 0.0
2014-Nov-28 01:33N 40°41' W 074°10'0 0.0
2014-Nov-28 00:33N 40°41' W 074°10'0 0.0
2014-Nov-27 23:33N 40°41' W 074°10'0 0.0
2014-Nov-27 22:33N 40°41' W 074°10'0 0.0
2014-Nov-27 21:33N 40°41' W 074°10'0 0.0
2014-Nov-27 20:30N 40°41' W 074°10'0 0.0
2014-Nov-27 19:26N 40°41' W 074°10'0 0.0
2014-Nov-27 18:33N 40°41' W 074°10'0 0.0
2014-Nov-27 17:30N 40°41' W 074°10'3 2.9
2014-Nov-27 16:33N 40°39' W 074°09'1 0.3
2014-Nov-27 12:14N 40°39' W 074°07'1 0.3
2014-Nov-27 07:33N 40°39' W 074°05'1 1.3
2014-Nov-27 06:33N 40°40' W 074°04'0 0.0
2014-Nov-27 05:33N 40°40' W 074°04'0 0.0
2014-Nov-27 04:33N 40°40' W 074°04'0 0.0
2014-Nov-27 03:33N 40°40' W 074°04'0 0.0
2014-Nov-27 02:33N 40°40' W 074°04'0 0.0
2014-Nov-27 01:33N 40°40' W 074°04'4 3.5
2014-Nov-27 00:33N 40°39' W 074°09'2 2.1
2014-Nov-26 23:33N 40°41' W 074°09'0 0.0
2014-Nov-26 22:33N 40°41' W 074°09'0 0.0
2014-Nov-26 21:33N 40°41' W 074°09'0 0.4
2014-Nov-26 20:32N 40°41' W 074°09'0 0.0
2014-Nov-26 19:33N 40°41' W 074°09'0 0.0
2014-Nov-26 18:32N 40°41' W 074°09'0 0.0
2014-Nov-26 17:33N 40°41' W 074°09'0 0.0
2014-Nov-26 16:26N 40°41' W 074°09'0 0.0
2014-Nov-26 15:25N 40°41' W 074°09'0 0.0
2014-Nov-26 14:29N 40°41' W 074°09'0 0.0
2014-Nov-26 13:33N 40°41' W 074°09'1 0.7
2014-Nov-26 12:33N 40°41' W 074°08'3 2.5
2014-Nov-26 11:33N 40°39' W 074°06'2 2.2
2014-Nov-26 10:33N 40°37' W 074°04'0 0.0
2014-Nov-26 09:33N 40°37' W 074°04'0 0.0
2014-Nov-26 08:33N 40°37' W 074°04'0 0.0
2014-Nov-26 07:33N 40°37' W 074°04'0 0.0
2014-Nov-26 06:33N 40°37' W 074°04'0 0.1
2014-Nov-26 05:33N 40°38' W 074°04'0 0.2
2014-Nov-26 04:33N 40°38' W 074°04'0 0.0
2014-Nov-26 03:33N 40°38' W 074°04'0 0.3
2014-Nov-26 02:33N 40°38' W 074°03'3 3.2
2014-Nov-26 01:33N 40°40' W 074°00'0 0.0
2014-Nov-26 00:33N 40°40' W 074°00'0 0.0
2014-Nov-25 23:33N 40°40' W 074°00'1 0.5
2014-Nov-25 22:33N 40°40' W 074°01'4 4.4
2014-Nov-25 21:34N 40°39' W 074°06'0 0.0
2014-Nov-25 20:34N 40°39' W 074°06'0 0.3
2014-Nov-25 19:34N 40°39' W 074°07'0 0.0
2014-Nov-25 18:33N 40°39' W 074°07'0 0.0
2014-Nov-25 17:33N 40°39' W 074°07'0 0.0
2014-Nov-25 16:33N 40°39' W 074°07'0 0.0
2014-Nov-25 15:33N 40°39' W 074°07'0 0.0
2014-Nov-25 13:33N 40°39' W 074°07'0 0.3
2014-Nov-25 12:32N 40°39' W 074°07'0 0.0
2014-Nov-25 11:33N 40°39' W 074°07'0 0.0
2014-Nov-25 10:33N 40°39' W 074°07'0 0.0
2014-Nov-25 09:33N 40°39' W 074°07'2 1.5
2014-Nov-25 08:33N 40°39' W 074°05'4 3.7
2014-Nov-25 07:33N 40°40' W 074°00'0 0.1
2014-Nov-25 06:33N 40°40' W 074°00'0 0.0
2014-Nov-25 05:33N 40°40' W 074°00'0 0.0
2014-Nov-25 04:33N 40°40' W 074°00'0 0.0
2014-Nov-25 03:33N 40°40' W 074°00'0 0.0
2014-Nov-25 02:33N 40°40' W 074°00'0 0.0
2014-Nov-25 01:34N 40°40' W 074°00'0 0.0
2014-Nov-25 00:34N 40°40' W 074°00'0 0.0
2014-Nov-24 23:34N 40°40' W 074°00'0 0.0
2014-Nov-24 22:33N 40°40' W 074°00'3 2.6
2014-Nov-24 21:33N 40°39' W 074°04'2 1.9
2014-Nov-24 20:34N 40°39' W 074°06'1 0.7
2014-Nov-24 19:32N 40°39' W 074°07'0 0.0
2014-Nov-24 12:26N 40°39' W 074°07'2 2.7
2014-Nov-24 11:33N 40°39' W 074°04'0 0.0
2014-Nov-24 10:34N 40°39' W 074°04'0 0.1
2014-Nov-24 09:34N 40°39' W 074°04'0 0.2
2014-Nov-24 08:33N 40°38' W 074°04'0 0.1
2014-Nov-24 07:34N 40°38' W 074°04'0 0.0
2014-Nov-24 06:34N 40°38' W 074°04'4 3.6
2014-Nov-24 05:33N 40°39' W 074°09'2 2.4
2014-Nov-24 04:33N 40°41' W 074°09'0 0.0
2014-Nov-24 03:33N 40°41' W 074°09'0 0.0
2014-Nov-24 02:33N 40°41' W 074°09'0 0.0
2014-Nov-24 01:34N 40°41' W 074°09'0 0.0
2014-Nov-24 00:33N 40°41' W 074°09'0 0.1
2014-Nov-23 23:34N 40°41' W 074°09'2 1.6
2014-Nov-23 22:33N 40°39' W 074°09'4 4.0
2014-Nov-23 21:33N 40°39' W 074°04'2 2.4
2014-Nov-23 20:33N 40°40' W 074°00'0 0.0
2014-Nov-23 19:33N 40°40' W 074°00'0 0.0
2014-Nov-23 18:33N 40°40' W 074°00'0 0.0
2014-Nov-23 17:34N 40°40' W 074°00'0 0.0
2014-Nov-23 16:33N 40°40' W 074°00'0 0.0
2014-Nov-23 15:34N 40°40' W 074°01'4 4.4
2014-Nov-23 14:34N 40°39' W 074°06'1 0.7
2014-Nov-23 13:34N 40°39' W 074°07'0 0.0
2014-Nov-23 12:34N 40°39' W 074°07'0 0.0
2014-Nov-23 11:33N 40°39' W 074°07'1 1.3
2014-Nov-23 10:33N 40°39' W 074°05'1 1.2
2014-Nov-23 09:33N 40°39' W 074°07'1 1.5
2014-Nov-23 08:33N 40°39' W 074°09'2 2.0
2014-Nov-23 07:33N 40°41' W 074°10'0 0.0
2014-Nov-23 06:31N 40°41' W 074°10'0 0.0
2014-Nov-23 05:33N 40°41' W 074°10'0 0.0
2014-Nov-23 04:33N 40°41' W 074°10'0 0.0
2014-Nov-23 03:33N 40°41' W 074°10'0 0.0
2014-Nov-23 02:33N 40°41' W 074°10'0 0.0
2014-Nov-23 01:33N 40°41' W 074°10'0 0.0
2014-Nov-23 00:32N 40°41' W 074°10'0 0.0
2014-Nov-22 23:32N 40°41' W 074°10'0 0.0
2014-Nov-22 22:34N 40°41' W 074°10'1 0.7
2014-Nov-22 21:33N 40°41' W 074°09'0 0.1
2014-Nov-22 20:33N 40°41' W 074°09'0 0.0
2014-Nov-22 19:34N 40°41' W 074°09'0 0.0
2014-Nov-22 18:34N 40°41' W 074°09'0 0.1
2014-Nov-22 17:34N 40°41' W 074°09'3 3.3
2014-Nov-22 16:32N 40°38' W 074°12'0 0.0
2014-Nov-22 15:33N 40°38' W 074°12'2 2.1
2014-Nov-22 14:33N 40°39' W 074°09'2 2.3
2014-Nov-22 13:33N 40°41' W 074°10'0 0.0
2014-Nov-22 12:33N 40°41' W 074°10'0 0.0
2014-Nov-22 11:33N 40°41' W 074°10'0 0.0
2014-Nov-22 10:33N 40°41' W 074°10'0 0.0
2014-Nov-22 09:30N 40°41' W 074°10'0 0.0
2014-Nov-22 08:33N 40°41' W 074°10'0 0.0
2014-Nov-22 07:34N 40°41' W 074°10'0 0.0
2014-Nov-22 06:23N 40°41' W 074°10'0 0.0
2014-Nov-22 05:31N 40°41' W 074°10'0 0.0
2014-Nov-22 04:34N 40°41' W 074°10'0 0.0
2014-Nov-22 03:32N 40°41' W 074°10'0 0.0
2014-Nov-22 02:28N 40°41' W 074°10'0 0.0
2014-Nov-22 01:34N 40°41' W 074°10'0 0.0
2014-Nov-22 00:33N 40°41' W 074°10'0 0.0
2014-Nov-21 23:33N 40°41' W 074°10'0 0.0
2014-Nov-21 22:34N 40°41' W 074°10'0 0.0
2014-Nov-21 21:33N 40°41' W 074°10'0 0.0
2014-Nov-21 20:34N 40°41' W 074°10'0 0.0
2014-Nov-21 19:33N 40°41' W 074°10'1 0.6
2014-Nov-21 18:33N 40°41' W 074°09'3 2.0
2014-Nov-21 17:13N 40°39' W 074°07'5 7.3
2014-Nov-21 16:33N 40°40' W 074°01'3 3.1
2014-Nov-21 15:34N 40°39' W 074°05'3 2.8
2014-Nov-21 14:34N 40°40' W 074°09'0 0.0
2014-Nov-21 13:33N 40°40' W 074°09'0 0.0
2014-Nov-21 12:33N 40°40' W 074°09'0 0.0
2014-Nov-21 11:34N 40°40' W 074°09'0 0.0
2014-Nov-21 10:34N 40°40' W 074°09'0 0.0
2014-Nov-21 09:34N 40°40' W 074°09'0 0.0
2014-Nov-21 08:33N 40°40' W 074°09'0 0.0
2014-Nov-21 07:34N 40°40' W 074°09'0 0.0
2014-Nov-21 06:33N 40°40' W 074°09'0 0.0
2014-Nov-21 05:33N 40°40' W 074°09'0 0.0
2014-Nov-21 04:34N 40°40' W 074°09'0 0.2
2014-Nov-21 03:32N 40°40' W 074°09'0 0.1
2014-Nov-21 02:33N 40°40' W 074°08'2 1.5
2014-Nov-21 01:33N 40°41' W 074°09'0 0.0
2014-Nov-21 00:34N 40°41' W 074°09'0 0.0
2014-Nov-20 23:33N 40°41' W 074°09'2 1.5
2014-Nov-20 22:33N 40°40' W 074°08'2 1.9
2014-Nov-20 21:33N 40°39' W 074°06'1 0.1
2014-Nov-20 14:34N 40°39' W 074°05'3 3.1
2014-Nov-20 13:33N 40°40' W 074°01'8 7.4
2014-Nov-20 12:31N 40°47' W 073°56'0 0.0
2014-Nov-20 10:33N 40°47' W 073°56'8 8.0
2014-Nov-20 09:34N 40°41' W 074°03'1 1.1
2014-Nov-20 08:33N 40°40' W 074°04'1 0.8
2014-Nov-20 07:34N 40°40' W 074°05'0 0.0
2014-Nov-20 06:34N 40°40' W 074°05'0 0.0
2014-Nov-20 05:34N 40°40' W 074°05'2 0.5
2014-Nov-20 00:18N 40°39' W 074°07'5 7.2
2014-Nov-19 23:33N 40°40' W 074°00'1 1.1
2014-Nov-19 22:34N 40°41' W 074°01'0 0.0
2014-Nov-19 21:33N 40°41' W 074°01'0 0.0
2014-Nov-19 20:33N 40°41' W 074°01'0 0.0
2014-Nov-19 19:33N 40°41' W 074°01'0 0.0
2014-Nov-19 18:34N 40°41' W 074°01'0 0.0
2014-Nov-19 17:34N 40°41' W 074°01'0 0.0
2014-Nov-19 16:34N 40°41' W 074°01'2 1.7
2014-Nov-19 15:34N 40°40' W 074°03'3 2.8
2014-Nov-19 14:33N 40°39' W 074°06'2 2.3
2014-Nov-19 13:33N 40°39' W 074°09'4 3.8
2014-Nov-19 12:33N 40°40' W 074°04'1 1.4
2014-Nov-19 11:34N 40°41' W 074°03'3 3.2
2014-Nov-19 10:34N 40°39' W 074°07'1 0.2
2014-Nov-19 07:05N 40°39' W 074°07'4 6.8
2014-Nov-19 06:34N 40°40' W 074°03'3 3.0
2014-Nov-19 05:33N 40°39' W 074°06'1 1.5
2014-Nov-19 04:33N 40°39' W 074°05'3 3.2
2014-Nov-19 03:34N 40°40' W 074°00'0 0.0
2014-Nov-19 02:34N 40°40' W 074°00'0 0.0
2014-Nov-19 01:33N 40°40' W 074°00'0 0.0
2014-Nov-19 00:33N 40°40' W 074°00'0 0.0
2014-Nov-18 23:34N 40°40' W 074°00'3 3.2
2014-Nov-18 22:34N 40°39' W 074°04'4 3.9
2014-Nov-18 21:33N 40°41' W 074°09'0 0.0
2014-Nov-18 20:34N 40°41' W 074°09'0 0.0
2014-Nov-18 19:34N 40°41' W 074°09'0 0.0
2014-Nov-18 18:33N 40°41' W 074°09'0 0.4
2014-Nov-18 17:34N 40°41' W 074°09'0 0.2
2014-Nov-18 16:34N 40°41' W 074°10'0 0.0
2014-Nov-18 15:33N 40°41' W 074°10'0 0.0
2014-Nov-18 14:33N 40°41' W 074°10'0 0.0
2014-Nov-18 13:33N 40°41' W 074°10'0 0.0
2014-Nov-18 12:34N 40°41' W 074°10'3 2.7
2014-Nov-18 11:34N 40°39' W 074°09'2 2.1
2014-Nov-18 10:34N 40°39' W 074°06'4 4.4
2014-Nov-18 09:33N 40°40' W 074°00'4 3.7
2014-Nov-18 08:33N 40°39' W 074°05'0 0.0
2014-Nov-18 07:34N 40°39' W 074°05'  
Track history (hours):
 
Tides and Currents Weather Stations Pressure Air Temp Water Temp Dewpoint Dewpoint Depression Visibility Wind Speed Wind Dir Waves Ship Positions

Emerald Coast

Owner: Dann Marine Towing, LC, Chesapeake City, MD. More information available from US FCC via Universal Licensing System and Coast Guard Vessel Documentation Center.

Last reported at 2014-Nov-28 07:32 UTC. Time now 2014-Nov-28 08:32 UTC.
Position N 40°41' W 074°10'.

; draft 3 m.

Type: Towing. MMSI: 367097920.

Date/timePositionNaut miles runAvg speedWind from/ knotsBaromVisibWave heightAir tempDewpointWater temp
2014-Nov-28 07:32N 40°41' W 074°10'0 0.0
2014-Nov-28 06:32N 40°41' W 074°10'0 0.0
2014-Nov-28 04:28N 40°41' W 074°10'0 0.0
2014-Nov-28 03:32N 40°41' W 074°10'0 0.0
2014-Nov-28 02:33N 40°41' W 074°10'0 0.0
2014-Nov-28 01:33N 40°41' W 074°10'0 0.0
2014-Nov-28 00:33N 40°41' W 074°10'0 0.0
2014-Nov-27 23:33N 40°41' W 074°10'0 0.0
2014-Nov-27 22:33N 40°41' W 074°10'0 0.0
2014-Nov-27 21:33N 40°41' W 074°10'0 0.0
2014-Nov-27 20:30N 40°41' W 074°10'0 0.0
2014-Nov-27 19:26N 40°41' W 074°10'0 0.0
2014-Nov-27 18:33N 40°41' W 074°10'0 0.0
2014-Nov-27 17:30N 40°41' W 074°10'3 2.9
2014-Nov-27 16:33N 40°39' W 074°09'1 0.3
2014-Nov-27 12:14N 40°39' W 074°07'1 0.3
2014-Nov-27 07:33N 40°39' W 074°05'1 1.3
2014-Nov-27 06:33N 40°40' W 074°04'0 0.0
2014-Nov-27 05:33N 40°40' W 074°04'0 0.0
2014-Nov-27 04:33N 40°40' W 074°04'0 0.0
2014-Nov-27 03:33N 40°40' W 074°04'0 0.0
2014-Nov-27 02:33N 40°40' W 074°04'0 0.0
2014-Nov-27 01:33N 40°40' W 074°04'4 3.5
2014-Nov-27 00:33N 40°39' W 074°09'2 2.1
2014-Nov-26 23:33N 40°41' W 074°09'0 0.0
2014-Nov-26 22:33N 40°41' W 074°09'0 0.0
2014-Nov-26 21:33N 40°41' W 074°09'0 0.4
2014-Nov-26 20:32N 40°41' W 074°09'0 0.0
2014-Nov-26 19:33N 40°41' W 074°09'0 0.0
2014-Nov-26 18:32N 40°41' W 074°09'0 0.0
2014-Nov-26 17:33N 40°41' W 074°09'0 0.0
2014-Nov-26 16:26N 40°41' W 074°09'0 0.0
2014-Nov-26 15:25N 40°41' W 074°09'0 0.0
2014-Nov-26 14:29N 40°41' W 074°09'0 0.0
2014-Nov-26 13:33N 40°41' W 074°09'1 0.7
2014-Nov-26 12:33N 40°41' W 074°08'3 2.5
2014-Nov-26 11:33N 40°39' W 074°06'2 2.2
2014-Nov-26 10:33N 40°37' W 074°04'0 0.0
2014-Nov-26 09:33N 40°37' W 074°04'0 0.0
2014-Nov-26 08:33N 40°37' W 074°04'0 0.0
2014-Nov-26 07:33N 40°37' W 074°04'0 0.0
2014-Nov-26 06:33N 40°37' W 074°04'0 0.1
2014-Nov-26 05:33N 40°38' W 074°04'0 0.2
2014-Nov-26 04:33N 40°38' W 074°04'0 0.0
2014-Nov-26 03:33N 40°38' W 074°04'0 0.3
2014-Nov-26 02:33N 40°38' W 074°03'3 3.2
2014-Nov-26 01:33N 40°40' W 074°00'0 0.0
2014-Nov-26 00:33N 40°40' W 074°00'0 0.0
2014-Nov-25 23:33N 40°40' W 074°00'1 0.5
2014-Nov-25 22:33N 40°40' W 074°01'4 4.4
2014-Nov-25 21:34N 40°39' W 074°06'0 0.0
2014-Nov-25 20:34N 40°39' W 074°06'0 0.3
2014-Nov-25 19:34N 40°39' W 074°07'0 0.0
2014-Nov-25 18:33N 40°39' W 074°07'0 0.0
2014-Nov-25 17:33N 40°39' W 074°07'0 0.0
2014-Nov-25 16:33N 40°39' W 074°07'0 0.0
2014-Nov-25 15:33N 40°39' W 074°07'0 0.0
2014-Nov-25 13:33N 40°39' W 074°07'0 0.3
2014-Nov-25 12:32N 40°39' W 074°07'0 0.0
2014-Nov-25 11:33N 40°39' W 074°07'0 0.0
2014-Nov-25 10:33N 40°39' W 074°07'0 0.0
2014-Nov-25 09:33N 40°39' W 074°07'2 1.5
2014-Nov-25 08:33N 40°39' W 074°05'4 3.7
2014-Nov-25 07:33N 40°40' W 074°00'0 0.1
2014-Nov-25 06:33N 40°40' W 074°00'0 0.0
2014-Nov-25 05:33N 40°40' W 074°00'0 0.0
2014-Nov-25 04:33N 40°40' W 074°00'0 0.0
2014-Nov-25 03:33N 40°40' W 074°00'0 0.0
2014-Nov-25 02:33N 40°40' W 074°00'0 0.0
2014-Nov-25 01:34N 40°40' W 074°00'0 0.0
2014-Nov-25 00:34N 40°40' W 074°00'0 0.0
2014-Nov-24 23:34N 40°40' W 074°00'0 0.0
2014-Nov-24 22:33N 40°40' W 074°00'3 2.6
2014-Nov-24 21:33N 40°39' W 074°04'2 1.9
2014-Nov-24 20:34N 40°39' W 074°06'1 0.7
2014-Nov-24 19:32N 40°39' W 074°07'0 0.0
2014-Nov-24 12:26N 40°39' W 074°07'2 2.7
2014-Nov-24 11:33N 40°39' W 074°04'0 0.0
2014-Nov-24 10:34N 40°39' W 074°04'0 0.1
2014-Nov-24 09:34N 40°39' W 074°04'0 0.2
2014-Nov-24 08:33N 40°38' W 074°04'0 0.1
2014-Nov-24 07:34N 40°38' W 074°04'0 0.0
2014-Nov-24 06:34N 40°38' W 074°04'4 3.6
2014-Nov-24 05:33N 40°39' W 074°09'2 2.4
2014-Nov-24 04:33N 40°41' W 074°09'0 0.0
2014-Nov-24 03:33N 40°41' W 074°09'0 0.0
2014-Nov-24 02:33N 40°41' W 074°09'0 0.0
2014-Nov-24 01:34N 40°41' W 074°09'0 0.0
2014-Nov-24 00:33N 40°41' W 074°09'0 0.1
2014-Nov-23 23:34N 40°41' W 074°09'2 1.6
2014-Nov-23 22:33N 40°39' W 074°09'4 4.0
2014-Nov-23 21:33N 40°39' W 074°04'2 2.4
2014-Nov-23 20:33N 40°40' W 074°00'0 0.0
2014-Nov-23 19:33N 40°40' W 074°00'0 0.0
2014-Nov-23 18:33N 40°40' W 074°00'0 0.0
2014-Nov-23 17:34N 40°40' W 074°00'0 0.0
2014-Nov-23 16:33N 40°40' W 074°00'0 0.0
2014-Nov-23 15:34N 40°40' W 074°01'4 4.4
2014-Nov-23 14:34N 40°39' W 074°06'1 0.7
2014-Nov-23 13:34N 40°39' W 074°07'0 0.0
2014-Nov-23 12:34N 40°39' W 074°07'0 0.0
2014-Nov-23 11:33N 40°39' W 074°07'1 1.3
2014-Nov-23 10:33N 40°39' W 074°05'1 1.2
2014-Nov-23 09:33N 40°39' W 074°07'1 1.5
2014-Nov-23 08:33N 40°39' W 074°09'2 2.0
2014-Nov-23 07:33N 40°41' W 074°10'0 0.0
2014-Nov-23 06:31N 40°41' W 074°10'0 0.0
2014-Nov-23 05:33N 40°41' W 074°10'0 0.0
2014-Nov-23 04:33N 40°41' W 074°10'0 0.0
2014-Nov-23 03:33N 40°41' W 074°10'0 0.0
2014-Nov-23 02:33N 40°41' W 074°10'0 0.0
2014-Nov-23 01:33N 40°41' W 074°10'0 0.0
2014-Nov-23 00:32N 40°41' W 074°10'0 0.0
2014-Nov-22 23:32N 40°41' W 074°10'0 0.0
2014-Nov-22 22:34N 40°41' W 074°10'1 0.7
2014-Nov-22 21:33N 40°41' W 074°09'0 0.1
2014-Nov-22 20:33N 40°41' W 074°09'0 0.0
2014-Nov-22 19:34N 40°41' W 074°09'0 0.0
2014-Nov-22 18:34N 40°41' W 074°09'0 0.1
2014-Nov-22 17:34N 40°41' W 074°09'3 3.3
2014-Nov-22 16:32N 40°38' W 074°12'0 0.0
2014-Nov-22 15:33N 40°38' W 074°12'2 2.1
2014-Nov-22 14:33N 40°39' W 074°09'2 2.3
2014-Nov-22 13:33N 40°41' W 074°10'0 0.0
2014-Nov-22 12:33N 40°41' W 074°10'0 0.0
2014-Nov-22 11:33N 40°41' W 074°10'0 0.0
2014-Nov-22 10:33N 40°41' W 074°10'0 0.0
2014-Nov-22 09:30N 40°41' W 074°10'0 0.0
2014-Nov-22 08:33N 40°41' W 074°10'0 0.0
2014-Nov-22 07:34N 40°41' W 074°10'0 0.0
2014-Nov-22 06:23N 40°41' W 074°10'0 0.0
2014-Nov-22 05:31N 40°41' W 074°10'0 0.0
2014-Nov-22 04:34N 40°41' W 074°10'0 0.0
2014-Nov-22 03:32N 40°41' W 074°10'0 0.0
2014-Nov-22 02:28N 40°41' W 074°10'0 0.0
2014-Nov-22 01:34N 40°41' W 074°10'0 0.0
2014-Nov-22 00:33N 40°41' W 074°10'0 0.0
2014-Nov-21 23:33N 40°41' W 074°10'0 0.0
2014-Nov-21 22:34N 40°41' W 074°10'0 0.0
2014-Nov-21 21:33N 40°41' W 074°10'0 0.0
2014-Nov-21 20:34N 40°41' W 074°10'0 0.0
2014-Nov-21 19:33N 40°41' W 074°10'1 0.6
2014-Nov-21 18:33N 40°41' W 074°09'3 2.0
2014-Nov-21 17:13N 40°39' W 074°07'5 7.3
2014-Nov-21 16:33N 40°40' W 074°01'3 3.1
2014-Nov-21 15:34N 40°39' W 074°05'3 2.8
2014-Nov-21 14:34N 40°40' W 074°09'0 0.0
2014-Nov-21 13:33N 40°40' W 074°09'0 0.0
2014-Nov-21 12:33N 40°40' W 074°09'0 0.0
2014-Nov-21 11:34N 40°40' W 074°09'0 0.0
2014-Nov-21 10:34N 40°40' W 074°09'0 0.0
2014-Nov-21 09:34N 40°40' W 074°09'0 0.0
2014-Nov-21 08:33N 40°40' W 074°09'0 0.0
2014-Nov-21 07:34N 40°40' W 074°09'0 0.0
2014-Nov-21 06:33N 40°40' W 074°09'0 0.0
2014-Nov-21 05:33N 40°40' W 074°09'0 0.0
2014-Nov-21 04:34N 40°40' W 074°09'0 0.2
2014-Nov-21 03:32N 40°40' W 074°09'0 0.1
2014-Nov-21 02:33N 40°40' W 074°08'2 1.5
2014-Nov-21 01:33N 40°41' W 074°09'0 0.0
2014-Nov-21 00:34N 40°41' W 074°09'0 0.0
2014-Nov-20 23:33N 40°41' W 074°09'2 1.5
2014-Nov-20 22:33N 40°40' W 074°08'2 1.9
2014-Nov-20 21:33N 40°39' W 074°06'1 0.1
2014-Nov-20 14:34N 40°39' W 074°05'3 3.1
2014-Nov-20 13:33N 40°40' W 074°01'8 7.4
2014-Nov-20 12:31N 40°47' W 073°56'0 0.0
2014-Nov-20 10:33N 40°47' W 073°56'8 8.0
2014-Nov-20 09:34N 40°41' W 074°03'1 1.1
2014-Nov-20 08:33N 40°40' W 074°04'1 0.8
2014-Nov-20 07:34N 40°40' W 074°05'0 0.0
2014-Nov-20 06:34N 40°40' W 074°05'0 0.0
2014-Nov-20 05:34N 40°40' W 074°05'2 0.5
2014-Nov-20 00:18N 40°39' W 074°07'5 7.2
2014-Nov-19 23:33N 40°40' W 074°00'1 1.1
2014-Nov-19 22:34N 40°41' W 074°01'0 0.0
2014-Nov-19 21:33N 40°41' W 074°01'0 0.0
2014-Nov-19 20:33N 40°41' W 074°01'0 0.0
2014-Nov-19 19:33N 40°41' W 074°01'0 0.0
2014-Nov-19 18:34N 40°41' W 074°01'0 0.0
2014-Nov-19 17:34N 40°41' W 074°01'0 0.0
2014-Nov-19 16:34N 40°41' W 074°01'2 1.7
2014-Nov-19 15:34N 40°40' W 074°03'3 2.8
2014-Nov-19 14:33N 40°39' W 074°06'2 2.3
2014-Nov-19 13:33N 40°39' W 074°09'4 3.8
2014-Nov-19 12:33N 40°40' W 074°04'1 1.4
2014-Nov-19 11:34N 40°41' W 074°03'3 3.2
2014-Nov-19 10:34N 40°39' W 074°07'1 0.2
2014-Nov-19 07:05N 40°39' W 074°07'4 6.8
2014-Nov-19 06:34N 40°40' W 074°03'3 3.0
2014-Nov-19 05:33N 40°39' W 074°06'1 1.5
2014-Nov-19 04:33N 40°39' W 074°05'3 3.2
2014-Nov-19 03:34N 40°40' W 074°00'0 0.0
2014-Nov-19 02:34N 40°40' W 074°00'0 0.0
2014-Nov-19 01:33N 40°40' W 074°00'0 0.0
2014-Nov-19 00:33N 40°40' W 074°00'0 0.0
2014-Nov-18 23:34N 40°40' W 074°00'3 3.2
2014-Nov-18 22:34N 40°39' W 074°04'4 3.9
2014-Nov-18 21:33N 40°41' W 074°09'0 0.0
2014-Nov-18 20:34N 40°41' W 074°09'0 0.0
2014-Nov-18 19:34N 40°41' W 074°09'0 0.0
2014-Nov-18 18:33N 40°41' W 074°09'0 0.4
2014-Nov-18 17:34N 40°41' W 074°09'0 0.2
2014-Nov-18 16:34N 40°41' W 074°10'0 0.0
2014-Nov-18 15:33N 40°41' W 074°10'0 0.0
2014-Nov-18 14:33N 40°41' W 074°10'0 0.0
2014-Nov-18 13:33N 40°41' W 074°10'0 0.0
2014-Nov-18 12:34N 40°41' W 074°10'3 2.7
2014-Nov-18 11:34N 40°39' W 074°09'2 2.1
2014-Nov-18 10:34N 40°39' W 074°06'4 4.4
2014-Nov-18 09:33N 40°40' W 074°00'4 3.7
2014-Nov-18 08:33N 40°39' W 074°05'0 0.0
2014-Nov-18 07:34N 40°39' W 074°05'  

Dump ship's entire track history